sensor_id;sensor_type;location;lat;lon;timestamp;temperature;humidity
26254;DHT22;53339;51.378;0.094;2022-12-29T00:01:43;9.70;86.50
26254;DHT22;53339;51.378;0.094;2022-12-29T00:04:14;9.70;86.20
26254;DHT22;53339;51.378;0.094;2022-12-29T00:06:42;9.70;86.20
26254;DHT22;53339;51.378;0.094;2022-12-29T00:09:11;9.70;86.20
26254;DHT22;53339;51.378;0.094;2022-12-29T00:11:40;9.70;86.10
26254;DHT22;53339;51.378;0.094;2022-12-29T00:14:11;9.70;86.10
26254;DHT22;53339;51.378;0.094;2022-12-29T00:16:57;9.70;85.60
26254;DHT22;53339;51.378;0.094;2022-12-29T00:19:25;9.70;85.60
26254;DHT22;53339;51.378;0.094;2022-12-29T00:22:12;9.70;85.80
26254;DHT22;53339;51.378;0.094;2022-12-29T00:24:59;9.60;86.00
26254;DHT22;53339;51.378;0.094;2022-12-29T00:27:36;9.40;86.40
26254;DHT22;53339;51.378;0.094;2022-12-29T00:30:25;9.30;86.70
26254;DHT22;53339;51.378;0.094;2022-12-29T00:33:16;9.20;86.90
26254;DHT22;53339;51.378;0.094;2022-12-29T00:36:13;9.20;86.70
26254;DHT22;53339;51.378;0.094;2022-12-29T00:38:50;9.30;86.70
26254;DHT22;53339;51.378;0.094;2022-12-29T00:41:37;9.30;86.90
26254;DHT22;53339;51.378;0.094;2022-12-29T00:44:23;9.40;87.00
26254;DHT22;53339;51.378;0.094;2022-12-29T00:46:50;9.40;87.00
26254;DHT22;53339;51.378;0.094;2022-12-29T00:49:19;9.40;87.20
26254;DHT22;53339;51.378;0.094;2022-12-29T00:52:09;9.40;87.20
26254;DHT22;53339;51.378;0.094;2022-12-29T00:54:39;9.40;86.80
26254;DHT22;53339;51.378;0.094;2022-12-29T00:57:09;9.50;86.00
26254;DHT22;53339;51.378;0.094;2022-12-29T00:59:41;9.60;85.50
26254;DHT22;53339;51.378;0.094;2022-12-29T01:02:09;9.50;85.40
26254;DHT22;53339;51.378;0.094;2022-12-29T01:04:37;9.50;85.20
26254;DHT22;53339;51.378;0.094;2022-12-29T01:07:05;9.50;84.40
26254;DHT22;53339;51.378;0.094;2022-12-29T01:09:32;9.60;84.30
26254;DHT22;53339;51.378;0.094;2022-12-29T01:12:19;9.60;83.40
26254;DHT22;53339;51.378;0.094;2022-12-29T01:15:09;9.60;82.50
26254;DHT22;53339;51.378;0.094;2022-12-29T01:17:37;9.60;81.70
26254;DHT22;53339;51.378;0.094;2022-12-29T01:20:05;9.60;81.80
26254;DHT22;53339;51.378;0.094;2022-12-29T01:22:33;9.60;81.50
26254;DHT22;53339;51.378;0.094;2022-12-29T01:25:00;9.60;81.00
26254;DHT22;53339;51.378;0.094;2022-12-29T01:27:28;9.60;81.20
26254;DHT22;53339;51.378;0.094;2022-12-29T01:29:55;9.50;81.00
26254;DHT22;53339;51.378;0.094;2022-12-29T01:32:23;9.50;81.10
26254;DHT22;53339;51.378;0.094;2022-12-29T01:34:50;9.50;81.30
26254;DHT22;53339;51.378;0.094;2022-12-29T01:37:17;9.50;81.30
26254;DHT22;53339;51.378;0.094;2022-12-29T01:39:45;9.50;81.40
26254;DHT22;53339;51.378;0.094;2022-12-29T01:42:18;9.40;81.90
26254;DHT22;53339;51.378;0.094;2022-12-29T01:44:52;9.30;83.00
26254;DHT22;53339;51.378;0.094;2022-12-29T01:47:48;9.20;84.00
26254;DHT22;53339;51.378;0.094;2022-12-29T01:50:18;8.90;84.80
26254;DHT22;53339;51.378;0.094;2022-12-29T01:53:03;8.70;85.50
26254;DHT22;53339;51.378;0.094;2022-12-29T01:55:48;8.60;85.70
26254;DHT22;53339;51.378;0.094;2022-12-29T01:58:20;8.50;85.90
26254;DHT22;53339;51.378;0.094;2022-12-29T02:00:50;8.40;85.70
26254;DHT22;53339;51.378;0.094;2022-12-29T02:03:19;8.40;85.40
26254;DHT22;53339;51.378;0.094;2022-12-29T02:08:24;8.60;84.80
26254;DHT22;53339;51.378;0.094;2022-12-29T02:10:54;8.60;84.00
26254;DHT22;53339;51.378;0.094;2022-12-29T02:13:26;8.70;83.70
26254;DHT22;53339;51.378;0.094;2022-12-29T02:16:39;8.70;83.20
26254;DHT22;53339;51.378;0.094;2022-12-29T02:25:05;8.80;83.10
26254;DHT22;53339;51.378;0.094;2022-12-29T02:28:06;8.70;83.50
26254;DHT22;53339;51.378;0.094;2022-12-29T02:36:07;8.80;83.30
26254;DHT22;53339;51.378;0.094;2022-12-29T02:38:50;8.80;83.50
26254;DHT22;53339;51.378;0.094;2022-12-29T02:41:33;8.90;82.90
26254;DHT22;53339;51.378;0.094;2022-12-29T02:46:47;8.90;82.50
26254;DHT22;53339;51.378;0.094;2022-12-29T02:49:33;8.90;82.80
26254;DHT22;53339;51.378;0.094;2022-12-29T02:52:07;8.90;82.80
26254;DHT22;53339;51.378;0.094;2022-12-29T02:54:38;9.00;82.60
26254;DHT22;53339;51.378;0.094;2022-12-29T02:57:27;9.00;82.80
26254;DHT22;53339;51.378;0.094;2022-12-29T03:05:17;9.00;83.30
26254;DHT22;53339;51.378;0.094;2022-12-29T03:16:28;9.20;81.30
26254;DHT22;53339;51.378;0.094;2022-12-29T03:19:10;9.30;80.90
26254;DHT22;53339;51.378;0.094;2022-12-29T03:21:47;9.30;80.40
26254;DHT22;53339;51.378;0.094;2022-12-29T03:24:44;9.40;80.40
26254;DHT22;53339;51.378;0.094;2022-12-29T03:27:18;9.40;80.60
26254;DHT22;53339;51.378;0.094;2022-12-29T03:29:49;9.50;80.60
26254;DHT22;53339;51.378;0.094;2022-12-29T03:32:22;9.50;80.20
26254;DHT22;53339;51.378;0.094;2022-12-29T03:34:53;9.60;80.60
26254;DHT22;53339;51.378;0.094;2022-12-29T03:37:25;9.70;79.80
26254;DHT22;53339;51.378;0.094;2022-12-29T03:39:53;9.70;79.90
26254;DHT22;53339;51.378;0.094;2022-12-29T03:42:23;9.80;79.70
26254;DHT22;53339;51.378;0.094;2022-12-29T03:44:56;9.90;79.50
26254;DHT22;53339;51.378;0.094;2022-12-29T03:47:24;9.90;79.30
26254;DHT22;53339;51.378;0.094;2022-12-29T03:49:53;9.90;80.10
26254;DHT22;53339;51.378;0.094;2022-12-29T03:52:21;9.90;79.80
26254;DHT22;53339;51.378;0.094;2022-12-29T03:54:51;9.90;79.70
26254;DHT22;53339;51.378;0.094;2022-12-29T03:57:18;9.80;80.20
26254;DHT22;53339;51.378;0.094;2022-12-29T03:59:56;9.70;80.50
26254;DHT22;53339;51.378;0.094;2022-12-29T04:02:24;9.70;80.80
26254;DHT22;53339;51.378;0.094;2022-12-29T04:04:52;9.60;81.00
26254;DHT22;53339;51.378;0.094;2022-12-29T04:07:23;9.50;81.30
26254;DHT22;53339;51.378;0.094;2022-12-29T04:09:52;9.60;81.90
26254;DHT22;53339;51.378;0.094;2022-12-29T04:12:23;9.60;81.80
26254;DHT22;53339;51.378;0.094;2022-12-29T04:14:51;9.50;82.40
26254;DHT22;53339;51.378;0.094;2022-12-29T04:17:19;9.40;82.80
26254;DHT22;53339;51.378;0.094;2022-12-29T04:19:49;9.40;82.90
26254;DHT22;53339;51.378;0.094;2022-12-29T04:22:16;9.30;83.50
26254;DHT22;53339;51.378;0.094;2022-12-29T04:24:44;9.30;83.90
26254;DHT22;53339;51.378;0.094;2022-12-29T04:27:12;9.20;84.40
26254;DHT22;53339;51.378;0.094;2022-12-29T04:30:09;9.10;85.00
26254;DHT22;53339;51.378;0.094;2022-12-29T04:32:52;9.10;85.50
26254;DHT22;53339;51.378;0.094;2022-12-29T04:35:20;9.00;86.20
26254;DHT22;53339;51.378;0.094;2022-12-29T04:37:48;8.90;86.70
26254;DHT22;53339;51.378;0.094;2022-12-29T04:40:15;8.80;87.00
26254;DHT22;53339;51.378;0.094;2022-12-29T04:42:43;8.70;87.30
26254;DHT22;53339;51.378;0.094;2022-12-29T04:45:11;8.70;87.50
26254;DHT22;53339;51.378;0.094;2022-12-29T04:47:57;8.70;87.70
26254;DHT22;53339;51.378;0.094;2022-12-29T04:50:49;8.70;87.90
26254;DHT22;53339;51.378;0.094;2022-12-29T04:53:18;8.60;88.10
26254;DHT22;53339;51.378;0.094;2022-12-29T04:55:51;8.60;88.20
26254;DHT22;53339;51.378;0.094;2022-12-29T04:58:19;8.60;88.30
26254;DHT22;53339;51.378;0.094;2022-12-29T05:00:50;8.60;88.40
26254;DHT22;53339;51.378;0.094;2022-12-29T05:03:22;8.60;88.50
26254;DHT22;53339;51.378;0.094;2022-12-29T05:05:53;8.70;88.50
26254;DHT22;53339;51.378;0.094;2022-12-29T05:08:22;8.70;88.40
26254;DHT22;53339;51.378;0.094;2022-12-29T05:10:54;8.70;88.50
26254;DHT22;53339;51.378;0.094;2022-12-29T05:13:22;8.80;88.50
26254;DHT22;53339;51.378;0.094;2022-12-29T05:15:52;8.80;88.50
26254;DHT22;53339;51.378;0.094;2022-12-29T05:18:22;8.80;88.60
26254;DHT22;53339;51.378;0.094;2022-12-29T05:20:49;8.80;88.80
26254;DHT22;53339;51.378;0.094;2022-12-29T05:23:19;8.90;88.90
26254;DHT22;53339;51.378;0.094;2022-12-29T05:25:54;8.90;89.00
26254;DHT22;53339;51.378;0.094;2022-12-29T05:28:29;8.90;89.10
26254;DHT22;53339;51.378;0.094;2022-12-29T05:31:18;8.80;89.30
26254;DHT22;53339;51.378;0.094;2022-12-29T05:33:48;8.90;89.30
26254;DHT22;53339;51.378;0.094;2022-12-29T05:36:17;8.80;89.40
26254;DHT22;53339;51.378;0.094;2022-12-29T05:38:49;8.80;89.40
26254;DHT22;53339;51.378;0.094;2022-12-29T05:41:18;8.80;89.50
26254;DHT22;53339;51.378;0.094;2022-12-29T05:44:04;8.80;89.40
26254;DHT22;53339;51.378;0.094;2022-12-29T05:47:03;8.80;89.30
26254;DHT22;53339;51.378;0.094;2022-12-29T05:49:43;8.80;89.20
26254;DHT22;53339;51.378;0.094;2022-12-29T05:52:48;8.80;89.00
26254;DHT22;53339;51.378;0.094;2022-12-29T05:55:16;8.80;88.90
26254;DHT22;53339;51.378;0.094;2022-12-29T05:57:45;8.90;88.70
26254;DHT22;53339;51.378;0.094;2022-12-29T06:00:15;8.90;88.40
26254;DHT22;53339;51.378;0.094;2022-12-29T06:02:44;8.90;88.20
26254;DHT22;53339;51.378;0.094;2022-12-29T06:05:12;9.00;87.70
26254;DHT22;53339;51.378;0.094;2022-12-29T06:07:40;9.10;87.60
26254;DHT22;53339;51.378;0.094;2022-12-29T06:10:08;9.10;87.40
26254;DHT22;53339;51.378;0.094;2022-12-29T06:12:43;9.10;87.10
26254;DHT22;53339;51.378;0.094;2022-12-29T06:15:10;9.20;87.00
26254;DHT22;53339;51.378;0.094;2022-12-29T06:17:40;9.20;86.40
26254;DHT22;53339;51.378;0.094;2022-12-29T06:20:09;9.20;85.40
26254;DHT22;53339;51.378;0.094;2022-12-29T06:22:37;9.20;84.80
26254;DHT22;53339;51.378;0.094;2022-12-29T06:25:05;9.20;84.70
26254;DHT22;53339;51.378;0.094;2022-12-29T06:27:34;9.30;85.00
26254;DHT22;53339;51.378;0.094;2022-12-29T06:30:02;9.30;85.30
26254;DHT22;53339;51.378;0.094;2022-12-29T06:32:31;9.30;84.80
26254;DHT22;53339;51.378;0.094;2022-12-29T06:35:05;9.30;84.60
26254;DHT22;53339;51.378;0.094;2022-12-29T06:37:40;9.20;84.70
26254;DHT22;53339;51.378;0.094;2022-12-29T06:40:08;9.10;84.30
26254;DHT22;53339;51.378;0.094;2022-12-29T06:42:54;9.10;84.30
26254;DHT22;53339;51.378;0.094;2022-12-29T06:45:42;9.00;84.50
26254;DHT22;53339;51.378;0.094;2022-12-29T06:48:10;8.90;84.20
26254;DHT22;53339;51.378;0.094;2022-12-29T06:50:37;8.90;83.80
26254;DHT22;53339;51.378;0.094;2022-12-29T06:53:05;8.90;83.40
26254;DHT22;53339;51.378;0.094;2022-12-29T06:55:32;8.90;83.50
26254;DHT22;53339;51.378;0.094;2022-12-29T06:58:00;8.90;83.30
26254;DHT22;53339;51.378;0.094;2022-12-29T07:00:28;8.80;83.50
26254;DHT22;53339;51.378;0.094;2022-12-29T07:02:56;8.80;83.30
26254;DHT22;53339;51.378;0.094;2022-12-29T07:05:26;8.70;83.40
26254;DHT22;53339;51.378;0.094;2022-12-29T07:07:59;8.70;83.00
26254;DHT22;53339;51.378;0.094;2022-12-29T07:10:27;8.70;83.30
26254;DHT22;53339;51.378;0.094;2022-12-29T07:12:54;8.70;83.10
26254;DHT22;53339;51.378;0.094;2022-12-29T07:15:22;8.60;83.10
26254;DHT22;53339;51.378;0.094;2022-12-29T07:17:49;8.60;83.00
26254;DHT22;53339;51.378;0.094;2022-12-29T07:20:17;8.60;82.90
26254;DHT22;53339;51.378;0.094;2022-12-29T07:22:51;8.60;83.20
26254;DHT22;53339;51.378;0.094;2022-12-29T07:25:18;8.60;82.90
26254;DHT22;53339;51.378;0.094;2022-12-29T07:27:45;8.60;83.10
26254;DHT22;53339;51.378;0.094;2022-12-29T07:30:13;8.50;83.60
26254;DHT22;53339;51.378;0.094;2022-12-29T07:32:40;8.50;83.80
26254;DHT22;53339;51.378;0.094;2022-12-29T07:35:08;8.40;83.70
26254;DHT22;53339;51.378;0.094;2022-12-29T07:37:36;8.40;84.00
26254;DHT22;53339;51.378;0.094;2022-12-29T07:40:04;8.40;83.70
26254;DHT22;53339;51.378;0.094;2022-12-29T07:42:32;8.40;83.20
26254;DHT22;53339;51.378;0.094;2022-12-29T07:44:59;8.50;82.80
26254;DHT22;53339;51.378;0.094;2022-12-29T07:47:36;8.50;82.90
26254;DHT22;53339;51.378;0.094;2022-12-29T07:50:04;8.40;83.00
26254;DHT22;53339;51.378;0.094;2022-12-29T07:52:32;8.40;82.50
26254;DHT22;53339;51.378;0.094;2022-12-29T07:54:59;8.50;82.40
26254;DHT22;53339;51.378;0.094;2022-12-29T07:57:27;8.50;82.40
26254;DHT22;53339;51.378;0.094;2022-12-29T07:59:58;8.50;82.20
26254;DHT22;53339;51.378;0.094;2022-12-29T08:02:26;8.50;82.00
26254;DHT22;53339;51.378;0.094;2022-12-29T08:04:54;8.50;82.10
26254;DHT22;53339;51.378;0.094;2022-12-29T08:07:21;8.50;82.30
26254;DHT22;53339;51.378;0.094;2022-12-29T08:09:49;8.50;81.90
26254;DHT22;53339;51.378;0.094;2022-12-29T08:12:16;8.60;82.20
26254;DHT22;53339;51.378;0.094;2022-12-29T08:14:44;8.50;82.50
26254;DHT22;53339;51.378;0.094;2022-12-29T08:17:12;8.50;82.30
26254;DHT22;53339;51.378;0.094;2022-12-29T08:19:39;8.50;82.70
26254;DHT22;53339;51.378;0.094;2022-12-29T08:22:07;8.50;82.70
26254;DHT22;53339;51.378;0.094;2022-12-29T08:24:34;8.50;82.60
26254;DHT22;53339;51.378;0.094;2022-12-29T08:27:02;8.50;82.70
26254;DHT22;53339;51.378;0.094;2022-12-29T08:29:39;8.50;83.00
26254;DHT22;53339;51.378;0.094;2022-12-29T08:32:06;8.50;82.80
26254;DHT22;53339;51.378;0.094;2022-12-29T08:34:34;8.60;83.00
26254;DHT22;53339;51.378;0.094;2022-12-29T08:37:01;8.60;82.90
26254;DHT22;53339;51.378;0.094;2022-12-29T08:39:29;8.60;83.00
26254;DHT22;53339;51.378;0.094;2022-12-29T08:41:56;8.60;82.90
26254;DHT22;53339;51.378;0.094;2022-12-29T08:44:24;8.50;83.40
26254;DHT22;53339;51.378;0.094;2022-12-29T08:46:51;8.60;83.30
26254;DHT22;53339;51.378;0.094;2022-12-29T08:49:19;8.50;83.50
26254;DHT22;53339;51.378;0.094;2022-12-29T08:51:46;8.50;83.60
26254;DHT22;53339;51.378;0.094;2022-12-29T08:54:14;8.50;83.20
26254;DHT22;53339;51.378;0.094;2022-12-29T08:56:41;8.60;83.60
26254;DHT22;53339;51.378;0.094;2022-12-29T08:59:09;8.50;83.40
26254;DHT22;53339;51.378;0.094;2022-12-29T09:01:37;8.60;83.30
26254;DHT22;53339;51.378;0.094;2022-12-29T09:04:08;8.60;83.50
26254;DHT22;53339;51.378;0.094;2022-12-29T09:06:42;8.60;83.60
26254;DHT22;53339;51.378;0.094;2022-12-29T09:09:10;8.60;83.80
26254;DHT22;53339;51.378;0.094;2022-12-29T09:11:38;8.60;83.60
26254;DHT22;53339;51.378;0.094;2022-12-29T09:14:05;8.60;83.60
26254;DHT22;53339;51.378;0.094;2022-12-29T09:16:33;8.60;83.50
26254;DHT22;53339;51.378;0.094;2022-12-29T09:19:02;8.60;83.70
26254;DHT22;53339;51.378;0.094;2022-12-29T09:21:29;8.60;83.60
26254;DHT22;53339;51.378;0.094;2022-12-29T09:23:57;8.70;83.70
26254;DHT22;53339;51.378;0.094;2022-12-29T09:26:24;8.70;83.70
26254;DHT22;53339;51.378;0.094;2022-12-29T09:28:52;8.60;83.90
26254;DHT22;53339;51.378;0.094;2022-12-29T09:31:19;8.70;84.00
26254;DHT22;53339;51.378;0.094;2022-12-29T09:33:47;8.70;83.60
26254;DHT22;53339;51.378;0.094;2022-12-29T09:36:14;8.60;83.80
26254;DHT22;53339;51.378;0.094;2022-12-29T09:38:41;8.60;83.60
26254;DHT22;53339;51.378;0.094;2022-12-29T09:41:35;8.60;83.60
26254;DHT22;53339;51.378;0.094;2022-12-29T09:47:00;8.60;84.00
26254;DHT22;53339;51.378;0.094;2022-12-29T09:52:14;8.60;84.10
26254;DHT22;53339;51.378;0.094;2022-12-29T09:55:01;8.60;84.10
26254;DHT22;53339;51.378;0.094;2022-12-29T10:00:16;8.60;83.80
26254;DHT22;53339;51.378;0.094;2022-12-29T10:02:48;8.70;83.80
26254;DHT22;53339;51.378;0.094;2022-12-29T10:08:54;8.60;83.60
26254;DHT22;53339;51.378;0.094;2022-12-29T10:20:02;8.80;82.50
26254;DHT22;53339;51.378;0.094;2022-12-29T10:25:19;8.90;82.50
26254;DHT22;53339;51.378;0.094;2022-12-29T10:27:48;8.90;82.40
26254;DHT22;53339;51.378;0.094;2022-12-29T10:30:16;9.00;82.20
26254;DHT22;53339;51.378;0.094;2022-12-29T10:32:52;9.00;82.10
26254;DHT22;53339;51.378;0.094;2022-12-29T10:35:31;9.10;81.90
26254;DHT22;53339;51.378;0.094;2022-12-29T10:38:14;9.10;81.20
26254;DHT22;53339;51.378;0.094;2022-12-29T10:41:00;9.10;81.50
26254;DHT22;53339;51.378;0.094;2022-12-29T10:43:45;9.10;80.90
26254;DHT22;53339;51.378;0.094;2022-12-29T10:46:17;9.20;80.40
26254;DHT22;53339;51.378;0.094;2022-12-29T10:48:46;9.20;80.90
26254;DHT22;53339;51.378;0.094;2022-12-29T10:51:36;9.20;80.40
26254;DHT22;53339;51.378;0.094;2022-12-29T10:54:10;9.30;80.00
26254;DHT22;53339;51.378;0.094;2022-12-29T10:56:42;9.20;80.20
26254;DHT22;53339;51.378;0.094;2022-12-29T10:59:24;9.30;79.90
26254;DHT22;53339;51.378;0.094;2022-12-29T11:02:15;9.30;79.70
26254;DHT22;53339;51.378;0.094;2022-12-29T11:07:18;9.30;79.60
26254;DHT22;53339;51.378;0.094;2022-12-29T11:09:53;9.30;80.00
26254;DHT22;53339;51.378;0.094;2022-12-29T11:12:22;9.20;79.70
26254;DHT22;53339;51.378;0.094;2022-12-29T11:15:16;9.20;79.30
26254;DHT22;53339;51.378;0.094;2022-12-29T11:22:55;9.10;79.00
26254;DHT22;53339;51.378;0.094;2022-12-29T11:25:23;9.10;78.80
26254;DHT22;53339;51.378;0.094;2022-12-29T11:28:14;9.20;79.10
26254;DHT22;53339;51.378;0.094;2022-12-29T11:30:42;9.20;79.00
26254;DHT22;53339;51.378;0.094;2022-12-29T11:33:10;9.10;79.30
26254;DHT22;53339;51.378;0.094;2022-12-29T11:35:42;9.20;78.70
26254;DHT22;53339;51.378;0.094;2022-12-29T11:38:20;9.20;79.30
26254;DHT22;53339;51.378;0.094;2022-12-29T11:40:49;9.20;78.60
26254;DHT22;53339;51.378;0.094;2022-12-29T11:45:54;9.20;77.90
26254;DHT22;53339;51.378;0.094;2022-12-29T11:48:24;9.30;77.90
26254;DHT22;53339;51.378;0.094;2022-12-29T11:50:57;9.30;77.50
26254;DHT22;53339;51.378;0.094;2022-12-29T11:53:41;9.40;77.70
26254;DHT22;53339;51.378;0.094;2022-12-29T11:56:14;9.40;77.00
26254;DHT22;53339;51.378;0.094;2022-12-29T11:58:43;9.40;77.70
26254;DHT22;53339;51.378;0.094;2022-12-29T12:06:27;9.60;76.40
26254;DHT22;53339;51.378;0.094;2022-12-29T12:09:01;9.50;75.80
26254;DHT22;53339;51.378;0.094;2022-12-29T12:11:34;9.50;76.20
26254;DHT22;53339;51.378;0.094;2022-12-29T12:14:19;9.50;76.50
26254;DHT22;53339;51.378;0.094;2022-12-29T12:17:25;9.50;76.10
26254;DHT22;53339;51.378;0.094;2022-12-29T12:25:40;9.40;75.70
26254;DHT22;53339;51.378;0.094;2022-12-29T12:31:06;9.40;75.60
26254;DHT22;53339;51.378;0.094;2022-12-29T12:33:42;9.40;75.50
26254;DHT22;53339;51.378;0.094;2022-12-29T12:42:13;9.40;75.40
26254;DHT22;53339;51.378;0.094;2022-12-29T12:48:04;9.40;75.50
26254;DHT22;53339;51.378;0.094;2022-12-29T12:53:33;9.40;75.50
26254;DHT22;53339;51.378;0.094;2022-12-29T12:58:45;9.40;76.00
26254;DHT22;53339;51.378;0.094;2022-12-29T13:04:35;9.30;75.40
26254;DHT22;53339;51.378;0.094;2022-12-29T13:07:28;9.30;76.00
26254;DHT22;53339;51.378;0.094;2022-12-29T13:18:37;9.50;75.60
26254;DHT22;53339;51.378;0.094;2022-12-29T13:23:55;9.50;74.90
26254;DHT22;53339;51.378;0.094;2022-12-29T13:26:42;9.60;75.50
26254;DHT22;53339;51.378;0.094;2022-12-29T13:32:21;9.70;73.60
26254;DHT22;53339;51.378;0.094;2022-12-29T13:37:22;9.80;73.90
26254;DHT22;53339;51.378;0.094;2022-12-29T13:40:32;9.80;72.40
26254;DHT22;53339;51.378;0.094;2022-12-29T13:42:52;9.80;72.70
26254;DHT22;53339;51.378;0.094;2022-12-29T13:45:23;9.80;73.00
26254;DHT22;53339;51.378;0.094;2022-12-29T13:50:58;9.70;72.90
26254;DHT22;53339;51.378;0.094;2022-12-29T13:56:25;9.70;73.60
26254;DHT22;53339;51.378;0.094;2022-12-29T13:59:24;9.60;72.70
26254;DHT22;53339;51.378;0.094;2022-12-29T14:02:01;9.50;72.90
26254;DHT22;53339;51.378;0.094;2022-12-29T14:04:31;9.50;72.40
26254;DHT22;53339;51.378;0.094;2022-12-29T14:07:14;9.50;72.10
26254;DHT22;53339;51.378;0.094;2022-12-29T14:09:49;9.50;72.70
26254;DHT22;53339;51.378;0.094;2022-12-29T14:12:31;9.50;73.60
26254;DHT22;53339;51.378;0.094;2022-12-29T14:18:21;9.60;72.40
26254;DHT22;53339;51.378;0.094;2022-12-29T14:21:07;9.60;73.80
26254;DHT22;53339;51.378;0.094;2022-12-29T14:23:47;9.70;71.80
26254;DHT22;53339;51.378;0.094;2022-12-29T14:26:17;9.70;72.50
26254;DHT22;53339;51.378;0.094;2022-12-29T14:28:47;9.60;71.50
26254;DHT22;53339;51.378;0.094;2022-12-29T14:36:38;9.70;73.60
26254;DHT22;53339;51.378;0.094;2022-12-29T14:39:33;9.70;71.50
26254;DHT22;53339;51.378;0.094;2022-12-29T14:44:34;9.50;72.00
26254;DHT22;53339;51.378;0.094;2022-12-29T14:49:54;9.40;72.50
26254;DHT22;53339;51.378;0.094;2022-12-29T14:52:24;9.30;72.50
26254;DHT22;53339;51.378;0.094;2022-12-29T14:57:50;9.30;73.30
26254;DHT22;53339;51.378;0.094;2022-12-29T15:00:25;9.20;73.10
26254;DHT22;53339;51.378;0.094;2022-12-29T15:03:23;9.20;72.70
26254;DHT22;53339;51.378;0.094;2022-12-29T15:06:07;9.20;71.90
26254;DHT22;53339;51.378;0.094;2022-12-29T15:11:47;9.20;72.90
26254;DHT22;53339;51.378;0.094;2022-12-29T15:14:33;9.10;72.70
26254;DHT22;53339;51.378;0.094;2022-12-29T15:17:08;9.10;72.80
26254;DHT22;53339;51.378;0.094;2022-12-29T15:19:37;9.00;72.60
26254;DHT22;53339;51.378;0.094;2022-12-29T15:22:04;9.00;72.70
26254;DHT22;53339;51.378;0.094;2022-12-29T15:24:33;9.00;72.40
26254;DHT22;53339;51.378;0.094;2022-12-29T15:27:09;9.00;72.50
26254;DHT22;53339;51.378;0.094;2022-12-29T15:29:42;9.00;71.80
26254;DHT22;53339;51.378;0.094;2022-12-29T15:34:45;8.90;73.10
26254;DHT22;53339;51.378;0.094;2022-12-29T15:37:17;8.80;72.50
26254;DHT22;53339;51.378;0.094;2022-12-29T15:39:45;8.80;72.70
26254;DHT22;53339;51.378;0.094;2022-12-29T15:44:55;8.60;71.90
26254;DHT22;53339;51.378;0.094;2022-12-29T15:47:35;8.60;72.90
26254;DHT22;53339;51.378;0.094;2022-12-29T15:50:15;8.60;72.50
26254;DHT22;53339;51.378;0.094;2022-12-29T15:52:43;8.60;72.70
26254;DHT22;53339;51.378;0.094;2022-12-29T15:55:38;8.60;72.30
26254;DHT22;53339;51.378;0.094;2022-12-29T15:58:20;8.60;72.30
26254;DHT22;53339;51.378;0.094;2022-12-29T16:00:50;8.60;72.40
26254;DHT22;53339;51.378;0.094;2022-12-29T16:03:21;8.50;73.20
26254;DHT22;53339;51.378;0.094;2022-12-29T16:05:53;8.50;71.90
26254;DHT22;53339;51.378;0.094;2022-12-29T16:08:39;8.60;73.20
26254;DHT22;53339;51.378;0.094;2022-12-29T16:13:56;8.50;72.90
26254;DHT22;53339;51.378;0.094;2022-12-29T16:16:30;8.50;72.30
26254;DHT22;53339;51.378;0.094;2022-12-29T16:18:59;8.40;73.60
26254;DHT22;53339;51.378;0.094;2022-12-29T16:21:32;8.30;73.50
26254;DHT22;53339;51.378;0.094;2022-12-29T16:24:05;8.20;74.00
26254;DHT22;53339;51.378;0.094;2022-12-29T16:26:34;8.10;74.20
26254;DHT22;53339;51.378;0.094;2022-12-29T16:29:05;8.10;74.60
26254;DHT22;53339;51.378;0.094;2022-12-29T16:31:55;8.00;74.70
26254;DHT22;53339;51.378;0.094;2022-12-29T16:34:32;7.90;74.40
26254;DHT22;53339;51.378;0.094;2022-12-29T16:37:02;8.00;75.00
26254;DHT22;53339;51.378;0.094;2022-12-29T16:39:38;8.00;74.40
26254;DHT22;53339;51.378;0.094;2022-12-29T16:42:49;8.00;75.30
26254;DHT22;53339;51.378;0.094;2022-12-29T16:50:39;8.00;75.20
26254;DHT22;53339;51.378;0.094;2022-12-29T16:53:23;7.90;75.40
26254;DHT22;53339;51.378;0.094;2022-12-29T16:55:53;7.70;75.90
26254;DHT22;53339;51.378;0.094;2022-12-29T16:58:25;7.70;76.10
26254;DHT22;53339;51.378;0.094;2022-12-29T17:01:00;7.80;76.50
26254;DHT22;53339;51.378;0.094;2022-12-29T17:03:34;7.70;76.50
26254;DHT22;53339;51.378;0.094;2022-12-29T17:06:04;7.70;76.70
26254;DHT22;53339;51.378;0.094;2022-12-29T17:08:40;7.70;77.20
26254;DHT22;53339;51.378;0.094;2022-12-29T17:14:05;7.70;76.90
26254;DHT22;53339;51.378;0.094;2022-12-29T17:16:39;7.70;76.90
26254;DHT22;53339;51.378;0.094;2022-12-29T17:19:08;7.70;77.00
26254;DHT22;53339;51.378;0.094;2022-12-29T17:21:39;7.70;77.20
26254;DHT22;53339;51.378;0.094;2022-12-29T17:24:17;7.70;77.10
26254;DHT22;53339;51.378;0.094;2022-12-29T17:26:51;7.60;77.30
26254;DHT22;53339;51.378;0.094;2022-12-29T17:29:37;7.60;77.70
26254;DHT22;53339;51.378;0.094;2022-12-29T17:32:10;7.60;77.20
26254;DHT22;53339;51.378;0.094;2022-12-29T17:34:40;7.60;77.50
26254;DHT22;53339;51.378;0.094;2022-12-29T17:37:35;7.60;77.10
26254;DHT22;53339;51.378;0.094;2022-12-29T17:40:05;7.60;77.10
26254;DHT22;53339;51.378;0.094;2022-12-29T17:42:36;7.70;77.20
26254;DHT22;53339;51.378;0.094;2022-12-29T17:45:04;7.60;76.90
26254;DHT22;53339;51.378;0.094;2022-12-29T17:47:32;7.60;77.30
26254;DHT22;53339;51.378;0.094;2022-12-29T17:49:59;7.50;77.70
26254;DHT22;53339;51.378;0.094;2022-12-29T17:52:27;7.50;77.90
26254;DHT22;53339;51.378;0.094;2022-12-29T17:54:54;7.40;78.10
26254;DHT22;53339;51.378;0.094;2022-12-29T17:57:22;7.30;78.30
26254;DHT22;53339;51.378;0.094;2022-12-29T17:59:50;7.30;78.60
26254;DHT22;53339;51.378;0.094;2022-12-29T18:02:27;7.20;78.60
26254;DHT22;53339;51.378;0.094;2022-12-29T18:04:57;7.10;78.70
26254;DHT22;53339;51.378;0.094;2022-12-29T18:07:27;7.10;78.90
26254;DHT22;53339;51.378;0.094;2022-12-29T18:10:02;7.20;78.90
26254;DHT22;53339;51.378;0.094;2022-12-29T18:12:38;7.20;78.90
26254;DHT22;53339;51.378;0.094;2022-12-29T18:15:22;7.20;78.70
26254;DHT22;53339;51.378;0.094;2022-12-29T18:18:01;7.20;78.80
26254;DHT22;53339;51.378;0.094;2022-12-29T18:20:30;7.30;78.70
26254;DHT22;53339;51.378;0.094;2022-12-29T18:22:57;7.30;78.60
26254;DHT22;53339;51.378;0.094;2022-12-29T18:28:00;7.30;78.60
26254;DHT22;53339;51.378;0.094;2022-12-29T18:30:27;7.30;78.70
26254;DHT22;53339;51.378;0.094;2022-12-29T18:32:55;7.30;78.60
26254;DHT22;53339;51.378;0.094;2022-12-29T18:35:36;7.40;78.30
26254;DHT22;53339;51.378;0.094;2022-12-29T18:38:04;7.40;78.60
26254;DHT22;53339;51.378;0.094;2022-12-29T18:40:33;7.40;78.50
26254;DHT22;53339;51.378;0.094;2022-12-29T18:43:01;7.40;78.70
26254;DHT22;53339;51.378;0.094;2022-12-29T18:45:31;7.30;78.70
26254;DHT22;53339;51.378;0.094;2022-12-29T18:47:59;7.30;78.80
26254;DHT22;53339;51.378;0.094;2022-12-29T18:50:27;7.20;79.00
26254;DHT22;53339;51.378;0.094;2022-12-29T18:52:54;7.20;79.20
26254;DHT22;53339;51.378;0.094;2022-12-29T18:55:30;7.10;79.20
26254;DHT22;53339;51.378;0.094;2022-12-29T18:57:58;7.10;79.60
26254;DHT22;53339;51.378;0.094;2022-12-29T19:00:25;7.10;79.70
26254;DHT22;53339;51.378;0.094;2022-12-29T19:02:52;7.10;79.70